Grogan, Missouri
Current Conditions -  °F | °C
As of 8:53 PM on Monday 26 Jan 2015 (Local Time) from KUNO Reporting Station
Clear Clear  
Wind Chill: 44°   Ceiling: Unl
Heat Index: 48°   Visibility: 10mi
Dew Point: 34°   Wind: 8mph
Humidity: 58%   Direction: 300°WNW
Pressure: 29.95"   Gusts: NA
Location:  37.2154°N, 91.991°W
Report Text: KUNO 270253Z AUTO 30007KT 10SM CLR 09/01 A2995 RMK AO2 SLP145 T00890011 51011
Loading
Personal Weather Stations






























Interactive Weather Map New forecast layout! Learn more

10-Day Weather Forecast

Advertisements
Track Severe Weather on mobile